sensor_id;sensor_type;location;lat;lon;timestamp;P1;durP1;ratioP1;P2;durP2;ratioP2
69789;SDS011;57064;52.046;4.800;2023-08-06T00:00:47;21.65;;;11.75;;
69789;SDS011;57064;52.046;4.800;2023-08-06T00:03:13;19.63;;;10.38;;
69789;SDS011;57064;52.046;4.800;2023-08-06T00:05:42;19.27;;;11.45;;
69789;SDS011;57064;52.046;4.800;2023-08-06T00:08:09;19.25;;;10.77;;
69789;SDS011;57064;52.046;4.800;2023-08-06T00:10:35;17.88;;;11.05;;
69789;SDS011;57064;52.046;4.800;2023-08-06T00:13:01;18.98;;;10.45;;
69789;SDS011;57064;52.046;4.800;2023-08-06T00:15:27;19.48;;;11.40;;
69789;SDS011;57064;52.046;4.800;2023-08-06T00:17:53;20.42;;;11.48;;
69789;SDS011;57064;52.046;4.800;2023-08-06T00:20:19;20.85;;;10.52;;
69789;SDS011;57064;52.046;4.800;2023-08-06T00:22:45;19.20;;;10.90;;
69789;SDS011;57064;52.046;4.800;2023-08-06T00:25:11;19.52;;;11.93;;
69789;SDS011;57064;52.046;4.800;2023-08-06T00:27:38;23.95;;;11.48;;
69789;SDS011;57064;52.046;4.800;2023-08-06T00:30:04;19.70;;;11.77;;
69789;SDS011;57064;52.046;4.800;2023-08-06T00:32:30;18.60;;;11.80;;
69789;SDS011;57064;52.046;4.800;2023-08-06T00:34:56;21.52;;;11.70;;
69789;SDS011;57064;52.046;4.800;2023-08-06T00:37:22;18.02;;;11.32;;
69789;SDS011;57064;52.046;4.800;2023-08-06T00:39:48;17.58;;;10.63;;
69789;SDS011;57064;52.046;4.800;2023-08-06T00:42:14;20.13;;;11.40;;
69789;SDS011;57064;52.046;4.800;2023-08-06T00:44:45;24.33;;;13.00;;
69789;SDS011;57064;52.046;4.800;2023-08-06T00:47:11;20.25;;;12.65;;
69789;SDS011;57064;52.046;4.800;2023-08-06T00:49:38;19.50;;;11.88;;
69789;SDS011;57064;52.046;4.800;2023-08-06T00:52:05;20.02;;;12.30;;
69789;SDS011;57064;52.046;4.800;2023-08-06T00:54:31;22.73;;;11.98;;
69789;SDS011;57064;52.046;4.800;2023-08-06T00:56:59;21.85;;;11.63;;
69789;SDS011;57064;52.046;4.800;2023-08-06T00:59:27;21.55;;;11.65;;
69789;SDS011;57064;52.046;4.800;2023-08-06T01:01:55;22.13;;;12.55;;
69789;SDS011;57064;52.046;4.800;2023-08-06T01:04:21;19.98;;;12.07;;
69789;SDS011;57064;52.046;4.800;2023-08-06T01:06:48;24.23;;;11.93;;
69789;SDS011;57064;52.046;4.800;2023-08-06T01:12:21;22.83;;;11.90;;
69789;SDS011;57064;52.046;4.800;2023-08-06T01:15:05;22.33;;;12.40;;
69789;SDS011;57064;52.046;4.800;2023-08-06T01:17:37;20.77;;;12.13;;
69789;SDS011;57064;52.046;4.800;2023-08-06T01:20:04;22.52;;;13.15;;
69789;SDS011;57064;52.046;4.800;2023-08-06T01:22:31;26.33;;;14.00;;
69789;SDS011;57064;52.046;4.800;2023-08-06T01:24:57;25.02;;;12.48;;
69789;SDS011;57064;52.046;4.800;2023-08-06T01:27:32;22.95;;;13.23;;
69789;SDS011;57064;52.046;4.800;2023-08-06T01:30:03;21.80;;;12.25;;
69789;SDS011;57064;52.046;4.800;2023-08-06T01:32:35;22.55;;;12.85;;
69789;SDS011;57064;52.046;4.800;2023-08-06T01:35:07;23.35;;;12.80;;
69789;SDS011;57064;52.046;4.800;2023-08-06T01:37:36;21.90;;;11.70;;
69789;SDS011;57064;52.046;4.800;2023-08-06T01:40:09;20.80;;;11.10;;
69789;SDS011;57064;52.046;4.800;2023-08-06T01:42:37;24.90;;;13.48;;
69789;SDS011;57064;52.046;4.800;2023-08-06T01:45:04;25.65;;;13.15;;
69789;SDS011;57064;52.046;4.800;2023-08-06T01:47:31;21.95;;;12.52;;
69789;SDS011;57064;52.046;4.800;2023-08-06T01:49:57;22.65;;;12.95;;
69789;SDS011;57064;52.046;4.800;2023-08-06T01:52:23;22.17;;;12.63;;
69789;SDS011;57064;52.046;4.800;2023-08-06T01:54:49;23.65;;;12.90;;
69789;SDS011;57064;52.046;4.800;2023-08-06T01:57:15;23.27;;;12.77;;
69789;SDS011;57064;52.046;4.800;2023-08-06T01:59:41;24.17;;;13.10;;
69789;SDS011;57064;52.046;4.800;2023-08-06T02:02:07;26.13;;;13.13;;
69789;SDS011;57064;52.046;4.800;2023-08-06T02:04:34;29.95;;;14.25;;
69789;SDS011;57064;52.046;4.800;2023-08-06T02:07:00;24.20;;;13.40;;
69789;SDS011;57064;52.046;4.800;2023-08-06T02:09:26;26.35;;;12.85;;
69789;SDS011;57064;52.046;4.800;2023-08-06T02:11:52;25.73;;;14.25;;
69789;SDS011;57064;52.046;4.800;2023-08-06T02:14:18;26.75;;;13.73;;
69789;SDS011;57064;52.046;4.800;2023-08-06T02:16:44;28.50;;;14.15;;
69789;SDS011;57064;52.046;4.800;2023-08-06T02:19:10;28.73;;;13.05;;
69789;SDS011;57064;52.046;4.800;2023-08-06T02:21:36;23.88;;;13.65;;
69789;SDS011;57064;52.046;4.800;2023-08-06T02:24:02;31.05;;;15.45;;
69789;SDS011;57064;52.046;4.800;2023-08-06T02:26:28;29.48;;;14.73;;
69789;SDS011;57064;52.046;4.800;2023-08-06T02:28:54;28.02;;;14.20;;
69789;SDS011;57064;52.046;4.800;2023-08-06T02:31:21;30.70;;;15.27;;
69789;SDS011;57064;52.046;4.800;2023-08-06T02:33:47;33.47;;;14.88;;
69789;SDS011;57064;52.046;4.800;2023-08-06T02:36:13;31.27;;;15.20;;
69789;SDS011;57064;52.046;4.800;2023-08-06T02:38:39;30.60;;;15.70;;
69789;SDS011;57064;52.046;4.800;2023-08-06T02:41:05;33.08;;;15.15;;
69789;SDS011;57064;52.046;4.800;2023-08-06T02:43:31;33.28;;;16.60;;
69789;SDS011;57064;52.046;4.800;2023-08-06T02:45:57;35.50;;;17.40;;
69789;SDS011;57064;52.046;4.800;2023-08-06T02:48:27;33.03;;;17.15;;
69789;SDS011;57064;52.046;4.800;2023-08-06T02:50:53;36.50;;;18.10;;
69789;SDS011;57064;52.046;4.800;2023-08-06T02:53:24;40.88;;;18.13;;
69789;SDS011;57064;52.046;4.800;2023-08-06T02:55:50;41.47;;;18.25;;
69789;SDS011;57064;52.046;4.800;2023-08-06T02:58:16;41.97;;;19.48;;
69789;SDS011;57064;52.046;4.800;2023-08-06T03:00:47;44.45;;;20.45;;
69789;SDS011;57064;52.046;4.800;2023-08-06T03:03:28;42.83;;;19.30;;
69789;SDS011;57064;52.046;4.800;2023-08-06T03:05:55;43.38;;;20.20;;
69789;SDS011;57064;52.046;4.800;2023-08-06T03:08:21;47.20;;;21.00;;
69789;SDS011;57064;52.046;4.800;2023-08-06T03:10:50;43.90;;;21.13;;
69789;SDS011;57064;52.046;4.800;2023-08-06T03:13:17;48.38;;;21.55;;
69789;SDS011;57064;52.046;4.800;2023-08-06T03:15:44;55.63;;;22.38;;
69789;SDS011;57064;52.046;4.800;2023-08-06T03:18:20;50.83;;;22.27;;
69789;SDS011;57064;52.046;4.800;2023-08-06T03:20:47;50.10;;;22.67;;
69789;SDS011;57064;52.046;4.800;2023-08-06T03:23:13;52.55;;;21.05;;
69789;SDS011;57064;52.046;4.800;2023-08-06T03:25:39;47.47;;;20.85;;
69789;SDS011;57064;52.046;4.800;2023-08-06T03:28:05;49.75;;;20.95;;
69789;SDS011;57064;52.046;4.800;2023-08-06T03:30:31;47.85;;;21.20;;
69789;SDS011;57064;52.046;4.800;2023-08-06T03:32:57;50.17;;;21.15;;
69789;SDS011;57064;52.046;4.800;2023-08-06T03:35:23;46.70;;;22.23;;
69789;SDS011;57064;52.046;4.800;2023-08-06T03:37:49;51.50;;;21.13;;
69789;SDS011;57064;52.046;4.800;2023-08-06T03:40:15;54.75;;;22.67;;
69789;SDS011;57064;52.046;4.800;2023-08-06T03:42:41;54.30;;;22.38;;
69789;SDS011;57064;52.046;4.800;2023-08-06T03:45:07;52.83;;;22.65;;
69789;SDS011;57064;52.046;4.800;2023-08-06T03:47:34;53.05;;;24.23;;
69789;SDS011;57064;52.046;4.800;2023-08-06T03:50:00;55.90;;;23.77;;
69789;SDS011;57064;52.046;4.800;2023-08-06T03:52:26;56.55;;;22.10;;
69789;SDS011;57064;52.046;4.800;2023-08-06T03:54:52;59.00;;;23.98;;
69789;SDS011;57064;52.046;4.800;2023-08-06T03:57:18;56.10;;;23.52;;
69789;SDS011;57064;52.046;4.800;2023-08-06T03:59:44;63.85;;;24.73;;
69789;SDS011;57064;52.046;4.800;2023-08-06T04:02:10;53.90;;;23.52;;
69789;SDS011;57064;52.046;4.800;2023-08-06T04:04:36;64.50;;;26.80;;
69789;SDS011;57064;52.046;4.800;2023-08-06T04:07:02;61.10;;;24.92;;
69789;SDS011;57064;52.046;4.800;2023-08-06T04:09:29;63.65;;;25.20;;
69789;SDS011;57064;52.046;4.800;2023-08-06T04:11:55;62.70;;;25.35;;
69789;SDS011;57064;52.046;4.800;2023-08-06T04:14:23;16.55;;;8.32;;
69789;SDS011;57064;52.046;4.800;2023-08-06T04:16:51;14.50;;;6.30;;
69789;SDS011;57064;52.046;4.800;2023-08-06T04:19:17;11.43;;;6.03;;
69789;SDS011;57064;52.046;4.800;2023-08-06T04:21:43;9.65;;;5.68;;
69789;SDS011;57064;52.046;4.800;2023-08-06T04:24:09;10.52;;;5.68;;
69789;SDS011;57064;52.046;4.800;2023-08-06T04:26:35;12.32;;;5.10;;
69789;SDS011;57064;52.046;4.800;2023-08-06T04:29:01;8.15;;;3.20;;
69789;SDS011;57064;52.046;4.800;2023-08-06T04:31:29;10.60;;;4.53;;
69789;SDS011;57064;52.046;4.800;2023-08-06T04:33:56;10.93;;;5.88;;
69789;SDS011;57064;52.046;4.800;2023-08-06T04:36:22;10.27;;;5.50;;
69789;SDS011;57064;52.046;4.800;2023-08-06T04:38:48;11.35;;;5.60;;
69789;SDS011;57064;52.046;4.800;2023-08-06T04:41:27;15.35;;;7.13;;
69789;SDS011;57064;52.046;4.800;2023-08-06T04:43:56;15.02;;;7.90;;
69789;SDS011;57064;52.046;4.800;2023-08-06T04:46:22;16.23;;;8.55;;
69789;SDS011;57064;52.046;4.800;2023-08-06T04:48:48;24.83;;;9.15;;
69789;SDS011;57064;52.046;4.800;2023-08-06T04:51:14;22.65;;;10.25;;
69789;SDS011;57064;52.046;4.800;2023-08-06T04:53:40;20.10;;;10.23;;
69789;SDS011;57064;52.046;4.800;2023-08-06T04:56:06;21.42;;;10.88;;
69789;SDS011;57064;52.046;4.800;2023-08-06T04:58:32;18.85;;;9.85;;
69789;SDS011;57064;52.046;4.800;2023-08-06T05:00:58;17.67;;;9.48;;
69789;SDS011;57064;52.046;4.800;2023-08-06T05:03:25;16.15;;;8.27;;
69789;SDS011;57064;52.046;4.800;2023-08-06T05:05:51;14.60;;;7.38;;
69789;SDS011;57064;52.046;4.800;2023-08-06T05:08:17;15.18;;;7.30;;
69789;SDS011;57064;52.046;4.800;2023-08-06T05:10:44;12.63;;;6.88;;
69789;SDS011;57064;52.046;4.800;2023-08-06T05:13:10;13.60;;;6.97;;
69789;SDS011;57064;52.046;4.800;2023-08-06T05:15:37;14.48;;;7.38;;
69789;SDS011;57064;52.046;4.800;2023-08-06T05:18:04;18.10;;;8.32;;
69789;SDS011;57064;52.046;4.800;2023-08-06T05:20:30;13.43;;;7.70;;
69789;SDS011;57064;52.046;4.800;2023-08-06T05:23:00;15.52;;;8.38;;
69789;SDS011;57064;52.046;4.800;2023-08-06T05:25:26;16.95;;;7.95;;
69789;SDS011;57064;52.046;4.800;2023-08-06T05:27:52;18.38;;;8.90;;
69789;SDS011;57064;52.046;4.800;2023-08-06T05:30:18;14.50;;;8.68;;
69789;SDS011;57064;52.046;4.800;2023-08-06T05:32:44;13.35;;;7.00;;
69789;SDS011;57064;52.046;4.800;2023-08-06T05:35:10;14.48;;;7.07;;
69789;SDS011;57064;52.046;4.800;2023-08-06T05:37:37;11.00;;;6.70;;
69789;SDS011;57064;52.046;4.800;2023-08-06T05:40:03;12.20;;;6.10;;
69789;SDS011;57064;52.046;4.800;2023-08-06T05:42:29;9.38;;;5.85;;
69789;SDS011;57064;52.046;4.800;2023-08-06T05:44:55;9.80;;;5.65;;
69789;SDS011;57064;52.046;4.800;2023-08-06T05:47:22;10.57;;;5.80;;
69789;SDS011;57064;52.046;4.800;2023-08-06T05:49:48;12.00;;;6.45;;
69789;SDS011;57064;52.046;4.800;2023-08-06T05:52:14;10.10;;;6.10;;
69789;SDS011;57064;52.046;4.800;2023-08-06T05:54:40;13.27;;;7.03;;
69789;SDS011;57064;52.046;4.800;2023-08-06T05:57:06;15.82;;;7.85;;
69789;SDS011;57064;52.046;4.800;2023-08-06T05:59:32;14.07;;;8.15;;
69789;SDS011;57064;52.046;4.800;2023-08-06T06:01:58;17.40;;;8.30;;
69789;SDS011;57064;52.046;4.800;2023-08-06T06:04:24;13.75;;;7.75;;
69789;SDS011;57064;52.046;4.800;2023-08-06T06:06:50;16.38;;;8.15;;
69789;SDS011;57064;52.046;4.800;2023-08-06T06:09:16;16.40;;;8.52;;
69789;SDS011;57064;52.046;4.800;2023-08-06T06:11:42;15.13;;;8.40;;
69789;SDS011;57064;52.046;4.800;2023-08-06T06:14:08;18.13;;;8.52;;
69789;SDS011;57064;52.046;4.800;2023-08-06T06:16:35;13.40;;;7.65;;
69789;SDS011;57064;52.046;4.800;2023-08-06T06:19:01;14.30;;;7.55;;
69789;SDS011;57064;52.046;4.800;2023-08-06T06:21:27;20.73;;;8.60;;
69789;SDS011;57064;52.046;4.800;2023-08-06T06:23:53;15.50;;;7.47;;
69789;SDS011;57064;52.046;4.800;2023-08-06T06:26:19;13.13;;;6.63;;
69789;SDS011;57064;52.046;4.800;2023-08-06T06:28:45;13.07;;;7.30;;
69789;SDS011;57064;52.046;4.800;2023-08-06T06:31:11;12.98;;;7.40;;
69789;SDS011;57064;52.046;4.800;2023-08-06T06:33:37;12.35;;;7.35;;
69789;SDS011;57064;52.046;4.800;2023-08-06T06:36:03;13.20;;;7.47;;
69789;SDS011;57064;52.046;4.800;2023-08-06T06:38:30;16.27;;;7.28;;
69789;SDS011;57064;52.046;4.800;2023-08-06T06:40:56;14.70;;;7.65;;
69789;SDS011;57064;52.046;4.800;2023-08-06T06:43:22;11.98;;;6.68;;
69789;SDS011;57064;52.046;4.800;2023-08-06T06:45:52;13.50;;;7.53;;
69789;SDS011;57064;52.046;4.800;2023-08-06T06:48:20;11.82;;;6.82;;
69789;SDS011;57064;52.046;4.800;2023-08-06T06:50:48;13.82;;;6.90;;
69789;SDS011;57064;52.046;4.800;2023-08-06T06:53:14;11.07;;;5.80;;
69789;SDS011;57064;52.046;4.800;2023-08-06T06:55:40;20.63;;;7.40;;
69789;SDS011;57064;52.046;4.800;2023-08-06T06:58:06;12.43;;;5.85;;
69789;SDS011;57064;52.046;4.800;2023-08-06T07:00:32;13.07;;;5.97;;
69789;SDS011;57064;52.046;4.800;2023-08-06T07:03:00;10.98;;;5.75;;
69789;SDS011;57064;52.046;4.800;2023-08-06T07:05:26;10.25;;;5.10;;
69789;SDS011;57064;52.046;4.800;2023-08-06T07:07:52;10.90;;;5.15;;
69789;SDS011;57064;52.046;4.800;2023-08-06T07:10:18;14.98;;;6.25;;
69789;SDS011;57064;52.046;4.800;2023-08-06T07:12:44;10.77;;;5.07;;
69789;SDS011;57064;52.046;4.800;2023-08-06T07:15:10;10.48;;;4.88;;
69789;SDS011;57064;52.046;4.800;2023-08-06T07:17:37;9.07;;;4.28;;
69789;SDS011;57064;52.046;4.800;2023-08-06T07:20:03;11.95;;;4.07;;
69789;SDS011;57064;52.046;4.800;2023-08-06T07:22:31;9.57;;;4.55;;
69789;SDS011;57064;52.046;4.800;2023-08-06T07:24:57;13.30;;;5.60;;
69789;SDS011;57064;52.046;4.800;2023-08-06T07:27:23;9.18;;;4.57;;
69789;SDS011;57064;52.046;4.800;2023-08-06T07:29:50;10.73;;;4.22;;
69789;SDS011;57064;52.046;4.800;2023-08-06T07:32:16;9.98;;;3.53;;
69789;SDS011;57064;52.046;4.800;2023-08-06T07:34:42;11.57;;;4.32;;
69789;SDS011;57064;52.046;4.800;2023-08-06T07:37:08;10.13;;;3.58;;
69789;SDS011;57064;52.046;4.800;2023-08-06T07:39:34;9.20;;;3.35;;
69789;SDS011;57064;52.046;4.800;2023-08-06T07:42:03;6.75;;;2.60;;
69789;SDS011;57064;52.046;4.800;2023-08-06T07:44:30;8.90;;;2.33;;
69789;SDS011;57064;52.046;4.800;2023-08-06T07:46:57;7.10;;;2.88;;
69789;SDS011;57064;52.046;4.800;2023-08-06T07:49:23;3.55;;;2.25;;
69789;SDS011;57064;52.046;4.800;2023-08-06T07:51:49;4.28;;;1.77;;
69789;SDS011;57064;52.046;4.800;2023-08-06T07:54:16;5.40;;;2.05;;
69789;SDS011;57064;52.046;4.800;2023-08-06T07:56:42;6.78;;;1.98;;
69789;SDS011;57064;52.046;4.800;2023-08-06T07:59:09;4.75;;;1.75;;
69789;SDS011;57064;52.046;4.800;2023-08-06T08:01:35;4.82;;;2.05;;
69789;SDS011;57064;52.046;4.800;2023-08-06T08:04:01;3.40;;;1.60;;
69789;SDS011;57064;52.046;4.800;2023-08-06T08:06:27;4.15;;;1.70;;
69789;SDS011;57064;52.046;4.800;2023-08-06T08:08:53;6.40;;;1.60;;
69789;SDS011;57064;52.046;4.800;2023-08-06T08:11:20;5.15;;;1.48;;
69789;SDS011;57064;52.046;4.800;2023-08-06T08:13:46;5.55;;;1.60;;
69789;SDS011;57064;52.046;4.800;2023-08-06T08:16:12;4.13;;;1.65;;
69789;SDS011;57064;52.046;4.800;2023-08-06T08:18:38;3.88;;;1.63;;
69789;SDS011;57064;52.046;4.800;2023-08-06T08:21:04;4.80;;;1.40;;
69789;SDS011;57064;52.046;4.800;2023-08-06T08:23:30;5.18;;;1.50;;
69789;SDS011;57064;52.046;4.800;2023-08-06T08:25:57;3.63;;;1.60;;
69789;SDS011;57064;52.046;4.800;2023-08-06T08:28:23;3.90;;;2.45;;
69789;SDS011;57064;52.046;4.800;2023-08-06T08:30:49;7.97;;;2.20;;
69789;SDS011;57064;52.046;4.800;2023-08-06T08:33:15;3.90;;;1.60;;
69789;SDS011;57064;52.046;4.800;2023-08-06T08:35:41;4.40;;;1.88;;
69789;SDS011;57064;52.046;4.800;2023-08-06T08:38:07;3.28;;;1.40;;
69789;SDS011;57064;52.046;4.800;2023-08-06T08:40:33;5.63;;;1.55;;
69789;SDS011;57064;52.046;4.800;2023-08-06T08:43:02;3.95;;;1.25;;
69789;SDS011;57064;52.046;4.800;2023-08-06T08:45:29;6.03;;;1.48;;
69789;SDS011;57064;52.046;4.800;2023-08-06T08:47:58;4.03;;;1.65;;
69789;SDS011;57064;52.046;4.800;2023-08-06T08:50:25;2.10;;;1.02;;
69789;SDS011;57064;52.046;4.800;2023-08-06T08:52:51;3.22;;;1.65;;
69789;SDS011;57064;52.046;4.800;2023-08-06T08:55:17;4.72;;;1.27;;
69789;SDS011;57064;52.046;4.800;2023-08-06T08:57:46;2.25;;;1.20;;
69789;SDS011;57064;52.046;4.800;2023-08-06T09:00:12;2.92;;;1.35;;
69789;SDS011;57064;52.046;4.800;2023-08-06T09:02:39;3.55;;;1.27;;
69789;SDS011;57064;52.046;4.800;2023-08-06T09:05:07;5.32;;;1.38;;
69789;SDS011;57064;52.046;4.800;2023-08-06T09:07:43;5.85;;;1.30;;
69789;SDS011;57064;52.046;4.800;2023-08-06T09:10:13;5.43;;;1.60;;
69789;SDS011;57064;52.046;4.800;2023-08-06T09:12:42;5.90;;;1.77;;
69789;SDS011;57064;52.046;4.800;2023-08-06T09:15:10;6.00;;;1.48;;
69789;SDS011;57064;52.046;4.800;2023-08-06T09:17:36;5.25;;;1.70;;
69789;SDS011;57064;52.046;4.800;2023-08-06T09:20:12;3.20;;;1.60;;
69789;SDS011;57064;52.046;4.800;2023-08-06T09:22:39;2.78;;;1.08;;
69789;SDS011;57064;52.046;4.800;2023-08-06T09:25:06;3.38;;;1.50;;
69789;SDS011;57064;52.046;4.800;2023-08-06T09:27:36;3.85;;;1.58;;
69789;SDS011;57064;52.046;4.800;2023-08-06T09:30:03;2.75;;;1.27;;
69789;SDS011;57064;52.046;4.800;2023-08-06T09:32:44;3.15;;;1.30;;
69789;SDS011;57064;52.046;4.800;2023-08-06T09:35:16;2.45;;;1.23;;
69789;SDS011;57064;52.046;4.800;2023-08-06T09:37:43;8.70;;;1.50;;
69789;SDS011;57064;52.046;4.800;2023-08-06T09:40:26;4.30;;;1.40;;
69789;SDS011;57064;52.046;4.800;2023-08-06T09:42:54;3.53;;;0.93;;
69789;SDS011;57064;52.046;4.800;2023-08-06T09:45:20;3.28;;;1.02;;
69789;SDS011;57064;52.046;4.800;2023-08-06T09:47:50;2.88;;;1.27;;
69789;SDS011;57064;52.046;4.800;2023-08-06T09:50:20;3.38;;;1.30;;
69789;SDS011;57064;52.046;4.800;2023-08-06T09:52:46;2.08;;;1.05;;
69789;SDS011;57064;52.046;4.800;2023-08-06T09:55:15;3.42;;;1.15;;
69789;SDS011;57064;52.046;4.800;2023-08-06T09:57:42;3.95;;;1.30;;
69789;SDS011;57064;52.046;4.800;2023-08-06T10:00:09;3.15;;;1.20;;
69789;SDS011;57064;52.046;4.800;2023-08-06T10:02:39;2.45;;;1.08;;
69789;SDS011;57064;52.046;4.800;2023-08-06T10:05:06;2.75;;;1.40;;
69789;SDS011;57064;52.046;4.800;2023-08-06T10:07:33;5.80;;;1.17;;
69789;SDS011;57064;52.046;4.800;2023-08-06T10:10:00;2.22;;;0.80;;
69789;SDS011;57064;52.046;4.800;2023-08-06T10:12:28;3.80;;;0.93;;
69789;SDS011;57064;52.046;4.800;2023-08-06T10:14:59;5.25;;;1.00;;
69789;SDS011;57064;52.046;4.800;2023-08-06T10:17:28;3.28;;;0.90;;
69789;SDS011;57064;52.046;4.800;2023-08-06T10:19:55;4.00;;;0.90;;
69789;SDS011;57064;52.046;4.800;2023-08-06T10:22:21;3.83;;;1.00;;
69789;SDS011;57064;52.046;4.800;2023-08-06T10:24:50;3.58;;;0.88;;
69789;SDS011;57064;52.046;4.800;2023-08-06T10:27:35;5.25;;;1.40;;
69789;SDS011;57064;52.046;4.800;2023-08-06T10:32:49;1.88;;;0.75;;
69789;SDS011;57064;52.046;4.800;2023-08-06T10:35:29;2.00;;;1.27;;
69789;SDS011;57064;52.046;4.800;2023-08-06T10:38:09;4.25;;;1.40;;
69789;SDS011;57064;52.046;4.800;2023-08-06T10:40:36;2.38;;;0.85;;
69789;SDS011;57064;52.046;4.800;2023-08-06T10:43:06;3.33;;;1.10;;
69789;SDS011;57064;52.046;4.800;2023-08-06T10:45:35;4.88;;;1.10;;
69789;SDS011;57064;52.046;4.800;2023-08-06T10:48:03;1.40;;;0.82;;
69789;SDS011;57064;52.046;4.800;2023-08-06T10:50:29;1.52;;;0.90;;
69789;SDS011;57064;52.046;4.800;2023-08-06T10:52:57;3.00;;;1.05;;
69789;SDS011;57064;52.046;4.800;2023-08-06T10:55:28;3.80;;;0.80;;
69789;SDS011;57064;52.046;4.800;2023-08-06T10:57:56;1.98;;;1.10;;
69789;SDS011;57064;52.046;4.800;2023-08-06T11:00:24;6.32;;;1.23;;
69789;SDS011;57064;52.046;4.800;2023-08-06T11:02:50;1.88;;;0.77;;
69789;SDS011;57064;52.046;4.800;2023-08-06T11:05:18;3.38;;;1.40;;
69789;SDS011;57064;52.046;4.800;2023-08-06T11:07:44;2.25;;;0.80;;
69789;SDS011;57064;52.046;4.800;2023-08-06T11:10:13;4.72;;;1.25;;
69789;SDS011;57064;52.046;4.800;2023-08-06T11:12:39;3.85;;;0.90;;
69789;SDS011;57064;52.046;4.800;2023-08-06T11:15:06;1.88;;;0.88;;
69789;SDS011;57064;52.046;4.800;2023-08-06T11:17:33;3.40;;;0.88;;
69789;SDS011;57064;52.046;4.800;2023-08-06T11:20:00;2.53;;;0.85;;
69789;SDS011;57064;52.046;4.800;2023-08-06T11:22:28;2.42;;;0.88;;
69789;SDS011;57064;52.046;4.800;2023-08-06T11:24:55;2.10;;;0.60;;
69789;SDS011;57064;52.046;4.800;2023-08-06T11:27:22;2.50;;;0.93;;
69789;SDS011;57064;52.046;4.800;2023-08-06T11:29:51;1.48;;;0.82;;
69789;SDS011;57064;52.046;4.800;2023-08-06T11:32:17;2.50;;;0.65;;
69789;SDS011;57064;52.046;4.800;2023-08-06T11:34:43;2.65;;;0.85;;
69789;SDS011;57064;52.046;4.800;2023-08-06T11:37:09;1.85;;;0.50;;
69789;SDS011;57064;52.046;4.800;2023-08-06T11:39:36;1.52;;;0.68;;
69789;SDS011;57064;52.046;4.800;2023-08-06T11:42:03;1.88;;;0.95;;
69789;SDS011;57064;52.046;4.800;2023-08-06T11:44:31;2.83;;;0.60;;
69789;SDS011;57064;52.046;4.800;2023-08-06T11:47:01;1.50;;;0.70;;
69789;SDS011;57064;52.046;4.800;2023-08-06T11:49:46;3.17;;;0.80;;
69789;SDS011;57064;52.046;4.800;2023-08-06T11:52:17;3.13;;;0.70;;
69789;SDS011;57064;52.046;4.800;2023-08-06T11:55:06;2.25;;;0.50;;
69789;SDS011;57064;52.046;4.800;2023-08-06T11:57:37;3.42;;;0.80;;
69789;SDS011;57064;52.046;4.800;2023-08-06T12:00:11;2.10;;;0.98;;
69789;SDS011;57064;52.046;4.800;2023-08-06T12:02:41;2.28;;;0.63;;
69789;SDS011;57064;52.046;4.800;2023-08-06T12:05:15;2.70;;;0.50;;
69789;SDS011;57064;52.046;4.800;2023-08-06T12:08:01;2.35;;;0.80;;
69789;SDS011;57064;52.046;4.800;2023-08-06T12:10:29;1.80;;;0.57;;
69789;SDS011;57064;52.046;4.800;2023-08-06T12:12:56;1.48;;;0.63;;
69789;SDS011;57064;52.046;4.800;2023-08-06T12:15:22;0.73;;;0.40;;
69789;SDS011;57064;52.046;4.800;2023-08-06T12:17:49;1.42;;;0.40;;
69789;SDS011;57064;52.046;4.800;2023-08-06T12:20:15;1.80;;;0.60;;
69789;SDS011;57064;52.046;4.800;2023-08-06T12:22:41;1.30;;;0.43;;
69789;SDS011;57064;52.046;4.800;2023-08-06T12:25:10;2.15;;;0.40;;
69789;SDS011;57064;52.046;4.800;2023-08-06T12:27:37;1.58;;;0.45;;
69789;SDS011;57064;52.046;4.800;2023-08-06T12:30:06;0.95;;;0.40;;
69789;SDS011;57064;52.046;4.800;2023-08-06T12:32:33;1.40;;;0.77;;
69789;SDS011;57064;52.046;4.800;2023-08-06T12:35:00;1.55;;;0.60;;
69789;SDS011;57064;52.046;4.800;2023-08-06T12:37:26;1.13;;;0.65;;
69789;SDS011;57064;52.046;4.800;2023-08-06T12:39:53;1.00;;;0.30;;
69789;SDS011;57064;52.046;4.800;2023-08-06T12:42:19;0.85;;;0.30;;
69789;SDS011;57064;52.046;4.800;2023-08-06T12:44:46;2.08;;;0.40;;
69789;SDS011;57064;52.046;4.800;2023-08-06T12:47:15;2.25;;;0.47;;
69789;SDS011;57064;52.046;4.800;2023-08-06T12:49:42;2.22;;;0.50;;
69789;SDS011;57064;52.046;4.800;2023-08-06T12:52:08;1.60;;;0.40;;
69789;SDS011;57064;52.046;4.800;2023-08-06T12:54:34;2.80;;;0.60;;
69789;SDS011;57064;52.046;4.800;2023-08-06T12:57:04;1.58;;;0.47;;
69789;SDS011;57064;52.046;4.800;2023-08-06T12:59:30;1.33;;;0.50;;
69789;SDS011;57064;52.046;4.800;2023-08-06T13:01:58;2.70;;;0.55;;
69789;SDS011;57064;52.046;4.800;2023-08-06T13:04:24;1.25;;;0.35;;
69789;SDS011;57064;52.046;4.800;2023-08-06T13:06:50;2.58;;;0.70;;
69789;SDS011;57064;52.046;4.800;2023-08-06T13:09:16;1.95;;;0.70;;
69789;SDS011;57064;52.046;4.800;2023-08-06T13:11:42;1.73;;;0.70;;
69789;SDS011;57064;52.046;4.800;2023-08-06T13:14:11;1.65;;;0.70;;
69789;SDS011;57064;52.046;4.800;2023-08-06T13:16:40;1.77;;;0.70;;
69789;SDS011;57064;52.046;4.800;2023-08-06T13:19:07;2.67;;;0.75;;
69789;SDS011;57064;52.046;4.800;2023-08-06T13:21:35;3.13;;;0.80;;
69789;SDS011;57064;52.046;4.800;2023-08-06T13:24:07;1.00;;;0.60;;
69789;SDS011;57064;52.046;4.800;2023-08-06T13:26:34;1.15;;;0.43;;
69789;SDS011;57064;52.046;4.800;2023-08-06T13:29:00;3.60;;;0.60;;
69789;SDS011;57064;52.046;4.800;2023-08-06T13:31:27;2.15;;;0.50;;
69789;SDS011;57064;52.046;4.800;2023-08-06T13:33:56;2.40;;;0.35;;
69789;SDS011;57064;52.046;4.800;2023-08-06T13:36:24;2.05;;;0.40;;
69789;SDS011;57064;52.046;4.800;2023-08-06T13:38:51;0.98;;;0.40;;
69789;SDS011;57064;52.046;4.800;2023-08-06T13:41:17;0.65;;;0.43;;
69789;SDS011;57064;52.046;4.800;2023-08-06T13:43:43;1.50;;;0.47;;
69789;SDS011;57064;52.046;4.800;2023-08-06T13:46:10;2.95;;;0.80;;
69789;SDS011;57064;52.046;4.800;2023-08-06T13:48:46;3.28;;;0.70;;
69789;SDS011;57064;52.046;4.800;2023-08-06T13:51:15;2.22;;;0.70;;
69789;SDS011;57064;52.046;4.800;2023-08-06T13:53:42;2.05;;;0.57;;
69789;SDS011;57064;52.046;4.800;2023-08-06T13:56:09;1.88;;;0.88;;
69789;SDS011;57064;52.046;4.800;2023-08-06T13:58:36;2.05;;;1.05;;
69789;SDS011;57064;52.046;4.800;2023-08-06T14:01:03;2.20;;;0.82;;
69789;SDS011;57064;52.046;4.800;2023-08-06T14:03:29;2.72;;;0.88;;
69789;SDS011;57064;52.046;4.800;2023-08-06T14:05:55;3.42;;;0.82;;
69789;SDS011;57064;52.046;4.800;2023-08-06T14:08:22;2.63;;;0.73;;
69789;SDS011;57064;52.046;4.800;2023-08-06T14:10:49;4.18;;;0.93;;
69789;SDS011;57064;52.046;4.800;2023-08-06T14:13:16;2.28;;;0.50;;
69789;SDS011;57064;52.046;4.800;2023-08-06T14:15:42;5.88;;;0.80;;
69789;SDS011;57064;52.046;4.800;2023-08-06T14:18:11;5.85;;;0.63;;
69789;SDS011;57064;52.046;4.800;2023-08-06T14:20:39;3.80;;;0.85;;
69789;SDS011;57064;52.046;4.800;2023-08-06T14:23:05;5.55;;;0.57;;
69789;SDS011;57064;52.046;4.800;2023-08-06T14:25:31;7.63;;;0.85;;
69789;SDS011;57064;52.046;4.800;2023-08-06T14:27:58;5.82;;;0.70;;
69789;SDS011;57064;52.046;4.800;2023-08-06T14:30:24;4.78;;;0.77;;
69789;SDS011;57064;52.046;4.800;2023-08-06T14:32:50;3.38;;;0.52;;
69789;SDS011;57064;52.046;4.800;2023-08-06T14:35:16;3.80;;;0.40;;
69789;SDS011;57064;52.046;4.800;2023-08-06T14:37:42;1.08;;;0.50;;
69789;SDS011;57064;52.046;4.800;2023-08-06T14:40:10;4.38;;;0.63;;
69789;SDS011;57064;52.046;4.800;2023-08-06T14:42:37;2.63;;;0.52;;
69789;SDS011;57064;52.046;4.800;2023-08-06T14:45:03;2.50;;;0.50;;